Aviation Digital Data Service (ADDS)

Output produced by TAFs form (1355 UTC 23 April 2017)
found at http://aviationweather.gov/adds/tafs/
 
KRIL 231123Z 2312/2412 00000KT P6SM BKN250 
     FM232000 23015G26KT P6SM BKN200 
     FM240200 19008KT P6SM SCT150 
     FM240500 25008KT P6SM BKN120